createdAt,value
2022-10-11T00:01:04.449Z,16.39
2022-10-11T00:03:34.631Z,16.26
2022-10-11T00:06:03.820Z,16.15
2022-10-11T00:08:32.641Z,16.32
2022-10-11T00:11:04.640Z,15.50
2022-10-11T00:13:37.062Z,14.56
2022-10-11T00:16:11.540Z,14.14
2022-10-11T00:18:40.534Z,14.71
2022-10-11T00:21:13.381Z,15.52
2022-10-11T00:23:41.532Z,15.74
2022-10-11T00:26:12.648Z,15.77
2022-10-11T00:28:41.459Z,15.75
2022-10-11T00:31:18.551Z,16.29
2022-10-11T00:33:45.758Z,16.22
2022-10-11T00:36:17.485Z,16.18
2022-10-11T00:38:47.882Z,15.83
2022-10-11T00:41:16.451Z,15.74
2022-10-11T00:43:44.490Z,15.78
2022-10-11T00:46:29.905Z,16.06
2022-10-11T00:49:25.437Z,16.26
2022-10-11T00:52:06.270Z,15.93
2022-10-11T00:54:39.487Z,15.91
2022-10-11T00:57:16.068Z,15.91
2022-10-11T00:59:52.703Z,16.13
2022-10-11T01:02:23.913Z,16.10
2022-10-11T01:05:11.346Z,16.39
2022-10-11T01:07:41.797Z,15.04
2022-10-11T01:10:10.436Z,15.78
2022-10-11T01:13:02.331Z,15.77
2022-10-11T01:15:55.291Z,15.87
2022-10-11T01:18:54.311Z,16.12
2022-10-11T01:21:45.420Z,16.16
2022-10-11T01:24:30.998Z,16.26
2022-10-11T01:27:32.183Z,16.31
2022-10-11T01:30:39.953Z,16.51
2022-10-11T01:33:26.106Z,16.35
2022-10-11T01:36:11.403Z,16.32
2022-10-11T01:38:58.439Z,16.17
2022-10-11T01:41:39.431Z,16.20
2022-10-11T01:44:09.373Z,16.19
2022-10-11T01:46:39.764Z,16.25
2022-10-11T01:49:08.725Z,16.32
2022-10-11T01:51:47.656Z,16.26
2022-10-11T01:55:04.085Z,16.16
2022-10-11T01:57:53.075Z,16.13
2022-10-11T02:00:28.235Z,16.23
2022-10-11T02:03:12.174Z,16.37
2022-10-11T02:06:02.474Z,16.79
2022-10-11T02:08:51.774Z,15.03
2022-10-11T02:11:35.112Z,14.96
2022-10-11T02:14:22.235Z,15.53
2022-10-11T02:17:10.244Z,15.77
2022-10-11T02:19:52.759Z,15.51
2022-10-11T02:22:28.575Z,15.65
2022-10-11T02:25:02.247Z,14.03
2022-10-11T02:27:37.200Z,15.17
2022-10-11T02:30:08.236Z,15.19
2022-10-11T02:32:40.257Z,15.48
2022-10-11T02:35:08.648Z,15.58
2022-10-11T02:37:59.273Z,16.06
2022-10-11T02:40:47.926Z,15.82
2022-10-11T02:43:41.911Z,15.46
2022-10-11T02:46:16.660Z,15.89
2022-10-11T02:48:45.100Z,16.11
2022-10-11T02:51:14.661Z,16.23
2022-10-11T02:53:41.853Z,16.23
2022-10-11T02:56:11.373Z,16.29
2022-10-11T02:58:38.496Z,16.29
2022-10-11T03:01:07.700Z,16.31
2022-10-11T03:03:37.973Z,16.29
2022-10-11T03:06:06.566Z,16.32
2022-10-11T03:08:34.576Z,16.35
2022-10-11T03:11:02.597Z,16.42
2022-10-11T03:13:29.951Z,16.33
2022-10-11T03:16:03.340Z,16.30
2022-10-11T03:18:35.847Z,16.46
2022-10-11T03:21:03.587Z,16.33
2022-10-11T03:23:32.437Z,16.37
2022-10-11T03:25:59.546Z,13.76
2022-10-11T03:28:27.950Z,13.99
2022-10-11T03:30:56.065Z,14.46
2022-10-11T03:33:23.583Z,14.74
2022-10-11T03:35:50.890Z,14.86
2022-10-11T03:38:22.470Z,15.36
2022-10-11T03:40:50.736Z,15.53
2022-10-11T03:43:23.193Z,15.64
2022-10-11T03:45:50.447Z,15.21
2022-10-11T03:48:17.744Z,15.27
2022-10-11T03:50:46.972Z,15.43
2022-10-11T03:53:14.258Z,15.40
2022-10-11T03:55:42.195Z,15.46
2022-10-11T03:58:09.740Z,15.66
2022-10-11T04:00:37.944Z,16.00
2022-10-11T04:03:06.016Z,16.24
2022-10-11T04:05:33.127Z,16.14
2022-10-11T04:08:06.266Z,15.70
2022-10-11T04:10:35.945Z,15.57
2022-10-11T04:13:03.107Z,15.74
2022-10-11T04:15:30.267Z,15.65
2022-10-11T04:18:03.129Z,15.74
2022-10-11T04:20:30.854Z,16.04
2022-10-11T04:23:01.925Z,14.31
2022-10-11T04:25:30.583Z,13.39
2022-10-11T04:27:57.702Z,13.62
2022-10-11T04:30:26.033Z,14.27
2022-10-11T04:32:59.337Z,14.80
2022-10-11T04:35:27.471Z,15.14
2022-10-11T04:37:54.751Z,15.31
2022-10-11T04:40:26.012Z,15.63
2022-10-11T04:42:54.908Z,15.61
2022-10-11T04:45:26.251Z,15.75
2022-10-11T04:47:54.421Z,15.79
2022-10-11T04:50:21.948Z,15.57
2022-10-11T04:52:49.574Z,15.80
2022-10-11T04:55:18.176Z,16.12
2022-10-11T04:57:48.105Z,15.61
2022-10-11T05:00:15.830Z,15.58
2022-10-11T05:02:43.011Z,15.15
2022-10-11T05:05:13.066Z,15.56
2022-10-11T05:07:40.137Z,15.38
2022-10-11T05:10:09.929Z,15.71
2022-10-11T05:12:38.036Z,15.60
2022-10-11T05:15:06.755Z,15.72
2022-10-11T05:17:35.117Z,15.85
2022-10-11T05:20:04.529Z,15.92
2022-10-11T05:22:32.110Z,15.78
2022-10-11T05:24:59.817Z,16.09
2022-10-11T05:27:30.558Z,16.32
2022-10-11T05:29:57.689Z,16.02
2022-10-11T05:32:27.897Z,16.12
2022-10-11T05:35:02.342Z,15.78
2022-10-11T05:37:29.473Z,15.61
2022-10-11T05:39:57.085Z,15.41
2022-10-11T05:42:24.141Z,15.59
2022-10-11T05:44:51.218Z,15.77
2022-10-11T05:47:18.644Z,15.76
2022-10-11T05:49:46.196Z,15.68
2022-10-11T05:52:13.754Z,15.72
2022-10-11T05:54:42.092Z,15.98
2022-10-11T05:57:10.563Z,16.34
2022-10-11T05:59:39.082Z,16.41
2022-10-11T06:02:06.754Z,16.28
2022-10-11T06:04:38.055Z,16.44
2022-10-11T06:07:06.339Z,17.08
2022-10-11T06:09:36.533Z,15.47
2022-10-11T06:12:04.890Z,15.16
2022-10-11T06:14:36.224Z,15.73
2022-10-11T06:17:03.308Z,16.15
2022-10-11T06:19:30.794Z,16.51
2022-10-11T06:21:57.996Z,16.85
2022-10-11T06:24:24.963Z,17.05
2022-10-11T06:26:52.545Z,17.28
2022-10-11T06:29:19.697Z,17.41
2022-10-11T06:31:50.258Z,17.16
2022-10-11T06:34:17.537Z,17.01
2022-10-11T06:36:44.552Z,16.88
2022-10-11T06:39:11.870Z,16.84
2022-10-11T06:41:44.974Z,17.02
2022-10-11T06:44:15.082Z,16.16
2022-10-11T06:46:44.664Z,16.28
2022-10-11T06:49:11.908Z,16.76
2022-10-11T06:51:38.935Z,17.15
2022-10-11T06:54:06.222Z,17.70
2022-10-11T06:56:36.167Z,17.01
2022-10-11T06:59:06.266Z,17.48
2022-10-11T07:01:36.383Z,18.12
2022-10-11T07:04:03.880Z,18.42
2022-10-11T07:06:39.743Z,18.32
2022-10-11T07:09:08.616Z,18.06
2022-10-11T07:11:36.144Z,18.38
2022-10-11T07:14:08.476Z,18.08
2022-10-11T07:16:42.266Z,17.67
2022-10-11T07:19:10.753Z,17.27
2022-10-11T07:21:40.859Z,17.17
2022-10-11T07:24:08.562Z,16.99
2022-10-11T07:26:38.295Z,17.10
2022-10-11T07:29:09.663Z,17.44
2022-10-11T07:31:40.310Z,17.47
2022-10-11T07:34:07.898Z,18.46
2022-10-11T07:36:35.193Z,18.43
2022-10-11T07:39:06.270Z,18.58
2022-10-11T07:41:34.557Z,19.47
2022-10-11T07:44:03.403Z,19.55
2022-10-11T07:46:32.559Z,19.66
2022-10-11T07:49:00.249Z,19.78
2022-10-11T07:51:29.542Z,20.18
2022-10-11T07:53:57.387Z,19.85
2022-10-11T07:56:32.593Z,20.20
2022-10-11T07:59:07.490Z,20.37
2022-10-11T08:01:34.705Z,20.51
2022-10-11T08:04:04.496Z,20.59
2022-10-11T08:06:34.596Z,20.42
2022-10-11T08:09:05.862Z,20.79
2022-10-11T08:11:39.250Z,21.20
2022-10-11T08:14:11.522Z,21.08
2022-10-11T08:16:48.256Z,20.98
2022-10-11T08:19:17.048Z,20.99
2022-10-11T08:21:46.364Z,21.35
2022-10-11T08:24:14.205Z,21.50
2022-10-11T08:26:41.810Z,21.71
2022-10-11T08:29:12.193Z,21.81
2022-10-11T08:31:39.283Z,21.91
2022-10-11T08:34:06.744Z,21.85
2022-10-11T08:36:36.121Z,22.19
2022-10-11T08:39:04.877Z,22.56
2022-10-11T08:42:20.010Z,22.14
2022-10-11T08:45:10.442Z,22.41
2022-10-11T08:47:44.680Z,22.43
2022-10-11T08:50:23.459Z,22.45
2022-10-11T08:53:14.680Z,22.48
2022-10-11T08:56:06.508Z,22.97
2022-10-11T08:59:06.171Z,23.44
2022-10-11T09:01:33.508Z,23.48
2022-10-11T09:04:00.686Z,23.47
2022-10-11T09:06:41.361Z,23.69
2022-10-11T09:09:45.115Z,23.54
2022-10-11T09:12:31.946Z,23.47
2022-10-11T09:15:11.875Z,23.94
2022-10-11T09:18:12.912Z,24.41
2022-10-11T09:20:52.483Z,24.14
2022-10-11T09:23:53.265Z,24.53
2022-10-11T09:26:56.321Z,24.78
2022-10-11T09:29:32.846Z,24.27
2022-10-11T09:32:03.416Z,24.59
2022-10-11T09:34:34.041Z,25.19
2022-10-11T09:37:22.685Z,25.28
2022-10-11T09:40:17.296Z,25.89
2022-10-11T09:42:46.527Z,25.96
2022-10-11T09:45:20.638Z,25.99
2022-10-11T09:47:51.881Z,25.49
2022-10-11T09:50:30.700Z,25.72
2022-10-11T09:53:03.779Z,25.95
2022-10-11T09:55:50.948Z,26.67
2022-10-11T09:58:38.644Z,27.23
2022-10-11T10:01:29.585Z,27.59
2022-10-11T10:04:17.274Z,25.87
2022-10-11T10:06:49.759Z,26.67
2022-10-11T10:09:31.191Z,27.65
2022-10-11T10:12:00.135Z,28.11
2022-10-11T10:14:32.974Z,28.48
2022-10-11T10:17:16.775Z,28.75
2022-10-11T10:19:55.107Z,29.35
2022-10-11T10:22:36.709Z,29.78
2022-10-11T10:25:09.451Z,29.66
2022-10-11T10:27:37.567Z,28.04
2022-10-11T10:30:20.035Z,30.10
2022-10-11T10:33:14.828Z,29.90
2022-10-11T10:36:02.574Z,28.51
2022-10-11T10:38:52.304Z,26.05
2022-10-11T10:41:20.524Z,24.89
2022-10-11T10:44:06.526Z,26.75
2022-10-11T10:47:39.768Z,28.66
2022-10-11T10:50:54.255Z,28.23
2022-10-11T10:53:46.263Z,29.29
2022-10-11T10:56:28.079Z,27.03
2022-10-11T10:59:04.903Z,26.97
2022-10-11T11:01:45.263Z,27.95
2022-10-11T11:04:38.311Z,25.82
2022-10-11T11:07:12.352Z,24.39
2022-10-11T11:09:46.771Z,23.80
2022-10-11T11:12:57.866Z,24.13
2022-10-11T11:15:37.780Z,25.13
2022-10-11T11:18:39.194Z,25.43
2022-10-11T11:21:41.919Z,25.09
2022-10-11T11:24:37.435Z,26.68
2022-10-11T11:27:42.482Z,23.09
2022-10-11T11:30:21.496Z,22.92
2022-10-11T11:33:48.811Z,24.55
2022-10-11T11:36:48.110Z,26.30
2022-10-11T11:39:37.560Z,25.31
2022-10-11T11:42:25.623Z,25.97
2022-10-11T11:44:54.800Z,26.50
2022-10-11T11:47:41.350Z,25.91
2022-10-11T11:50:29.508Z,26.11
2022-10-11T11:53:05.577Z,26.13
2022-10-11T11:56:01.214Z,25.89
2022-10-11T11:58:56.557Z,25.05
2022-10-11T12:01:48.893Z,23.91
2022-10-11T12:04:42.732Z,27.23
2022-10-11T12:07:17.287Z,24.98
2022-10-11T12:09:55.360Z,27.16
2022-10-11T12:12:38.733Z,31.28
2022-10-11T12:15:09.133Z,27.96
2022-10-11T12:18:17.377Z,27.09
2022-10-11T12:21:19.057Z,27.24
2022-10-11T12:24:00.346Z,27.55
2022-10-11T12:27:05.026Z,28.69
2022-10-11T12:29:50.740Z,28.85
2022-10-11T12:32:27.119Z,30.63
2022-10-11T12:35:32.454Z,32.97
2022-10-11T12:38:34.050Z,31.03
2022-10-11T12:41:18.004Z,32.96
2022-10-11T12:43:48.247Z,33.48
2022-10-11T12:46:33.662Z,30.17
2022-10-11T12:49:20.445Z,24.69
2022-10-11T12:52:01.478Z,23.88
2022-10-11T12:54:57.796Z,24.90
2022-10-11T12:58:28.817Z,23.17
2022-10-11T13:01:25.888Z,22.56
2022-10-11T13:04:20.451Z,24.32
2022-10-11T13:07:17.266Z,23.36
2022-10-11T13:12:48.205Z,23.70
2022-10-11T13:15:27.141Z,24.17
2022-10-11T13:18:09.351Z,25.68
2022-10-11T13:20:59.707Z,24.51
2022-10-11T13:23:51.753Z,23.91
2022-10-11T13:26:29.655Z,25.70
2022-10-11T13:29:34.585Z,24.46
2022-10-11T13:32:27.930Z,23.02
2022-10-11T13:35:21.082Z,23.41
2022-10-11T13:38:06.674Z,23.13
2022-10-11T13:40:50.832Z,22.49
2022-10-11T13:43:32.008Z,22.29
2022-10-11T13:46:05.767Z,22.24
2022-10-11T13:48:43.570Z,22.71
2022-10-11T13:51:59.961Z,22.76
2022-10-11T13:55:11.602Z,22.44
2022-10-11T13:57:57.984Z,22.84
2022-10-11T14:00:45.655Z,22.37
2022-10-11T14:04:15.727Z,22.38
2022-10-11T14:07:00.687Z,22.65
2022-10-11T14:09:56.573Z,22.22
2022-10-11T14:12:52.438Z,22.19
2022-10-11T14:15:47.348Z,21.82
2022-10-11T14:19:12.671Z,22.48
2022-10-11T14:21:46.451Z,21.91
2022-10-11T14:24:30.074Z,21.98
2022-10-11T14:27:14.951Z,21.77
2022-10-11T14:30:00.557Z,21.66
2022-10-11T14:32:49.390Z,22.19
2022-10-11T14:35:28.198Z,22.29
2022-10-11T14:37:56.086Z,22.01
2022-10-11T14:40:36.526Z,22.25
2022-10-11T14:43:08.081Z,22.48
2022-10-11T14:45:44.279Z,22.27
2022-10-11T14:51:13.243Z,22.39
2022-10-11T14:53:58.290Z,21.73
2022-10-11T14:56:30.700Z,21.67
2022-10-11T14:59:32.655Z,21.65
2022-10-11T15:02:21.379Z,21.94
2022-10-11T15:04:53.285Z,22.09
2022-10-11T15:07:35.753Z,22.40
2022-10-11T15:10:28.131Z,22.69
2022-10-11T15:13:03.231Z,21.56
2022-10-11T15:15:47.358Z,22.89
2022-10-11T15:18:21.568Z,22.96
2022-10-11T15:20:57.830Z,22.57
2022-10-11T15:23:37.264Z,21.99
2022-10-11T15:26:22.402Z,22.38
2022-10-11T15:28:57.672Z,22.53
2022-10-11T15:31:36.751Z,23.36
2022-10-11T15:34:13.716Z,23.62
2022-10-11T15:36:51.436Z,23.00
2022-10-11T15:42:25.457Z,22.01
2022-10-11T15:44:53.981Z,22.33
2022-10-11T15:47:51.948Z,21.13
2022-10-11T15:50:39.539Z,20.59
2022-10-11T15:53:23.060Z,20.28
2022-10-11T15:58:54.361Z,21.62
2022-10-11T16:01:44.103Z,22.35
2022-10-11T16:04:20.393Z,22.35
2022-10-11T16:06:55.741Z,22.39
2022-10-11T16:09:29.475Z,21.24
2022-10-11T16:12:00.198Z,20.90
2022-10-11T16:14:27.862Z,21.32
2022-10-11T16:19:42.897Z,21.03
2022-10-11T16:22:11.586Z,20.53
2022-10-11T16:24:44.095Z,20.31
2022-10-11T16:27:16.531Z,19.96
2022-10-11T16:29:53.111Z,19.98
2022-10-11T16:32:28.279Z,19.79
2022-10-11T16:34:58.585Z,19.86
2022-10-11T16:37:32.353Z,19.65
2022-10-11T16:40:11.747Z,20.30
2022-10-11T16:42:57.118Z,20.90
2022-10-11T16:45:36.371Z,21.04
2022-10-11T16:48:04.421Z,21.19
2022-10-11T16:50:39.665Z,21.03
2022-10-11T16:53:14.910Z,20.42
2022-10-11T16:55:43.033Z,20.53
2022-10-11T16:58:11.460Z,20.62
2022-10-11T17:00:45.185Z,20.45
2022-10-11T17:03:15.806Z,20.79
2022-10-11T17:05:46.873Z,20.85
2022-10-11T17:08:18.401Z,20.96
2022-10-11T17:10:59.692Z,21.09
2022-10-11T17:13:48.394Z,21.25
2022-10-11T17:16:23.609Z,21.23
2022-10-11T17:18:54.250Z,21.35
2022-10-11T17:21:28.091Z,21.20
2022-10-11T17:23:59.060Z,20.56
2022-10-11T17:26:35.469Z,20.28
2022-10-11T17:29:20.274Z,20.44
2022-10-11T17:31:56.929Z,19.85
2022-10-11T17:34:33.924Z,19.35
2022-10-11T17:37:19.531Z,19.20
2022-10-11T17:39:50.003Z,19.70
2022-10-11T17:42:21.176Z,20.17
2022-10-11T17:44:57.602Z,20.13
2022-10-11T17:47:31.157Z,20.27
2022-10-11T17:50:11.574Z,20.36
2022-10-11T17:52:51.311Z,19.92
2022-10-11T17:55:23.855Z,19.45
2022-10-11T17:57:51.177Z,19.53
2022-10-11T18:00:26.085Z,19.49
2022-10-11T18:03:05.724Z,19.69
2022-10-11T18:05:59.073Z,19.61
2022-10-11T18:08:40.854Z,19.46
2022-10-11T18:11:19.172Z,19.42
2022-10-11T18:14:04.437Z,19.49
2022-10-11T18:19:29.033Z,19.26
2022-10-11T18:22:03.143Z,19.49
2022-10-11T18:24:43.816Z,19.27
2022-10-11T18:27:13.991Z,19.32
2022-10-11T18:29:47.666Z,19.28
2022-10-11T18:32:23.607Z,19.24
2022-10-11T18:34:53.765Z,19.24
2022-10-11T18:37:39.136Z,19.35
2022-10-11T18:40:33.367Z,19.56
2022-10-11T18:43:04.203Z,19.66
2022-10-11T18:45:44.483Z,18.50
2022-10-11T18:48:26.981Z,17.53
2022-10-11T18:51:22.865Z,17.21
2022-10-11T18:54:31.574Z,17.94
2022-10-11T18:57:10.710Z,17.66
2022-10-11T18:59:53.832Z,18.20
2022-10-11T19:02:37.561Z,18.50
2022-10-11T19:05:12.309Z,18.61
2022-10-11T19:07:43.426Z,18.87
2022-10-11T19:10:21.655Z,19.18
2022-10-11T19:12:52.169Z,19.01
2022-10-11T19:15:30.051Z,18.97
2022-10-11T19:18:09.824Z,18.90
2022-10-11T19:20:48.260Z,18.81
2022-10-11T19:23:22.266Z,18.71
2022-10-11T19:26:32.480Z,18.68
2022-10-11T19:29:38.364Z,18.58
2022-10-11T19:32:08.350Z,18.34
2022-10-11T19:34:40.971Z,18.63
2022-10-11T19:37:13.766Z,18.95
2022-10-11T19:39:54.944Z,18.81
2022-10-11T19:42:34.302Z,18.56
2022-10-11T19:45:09.503Z,18.74
2022-10-11T19:47:38.751Z,18.74
2022-10-11T19:50:17.217Z,18.60
2022-10-11T19:53:10.818Z,17.50
2022-10-11T19:55:55.690Z,17.69
2022-10-11T19:58:28.015Z,18.12
2022-10-11T20:01:09.992Z,18.33
2022-10-11T20:03:39.711Z,18.34
2022-10-11T20:06:27.732Z,17.48
2022-10-11T20:09:33.522Z,15.98
2022-10-11T20:12:05.665Z,15.78
2022-10-11T20:14:48.347Z,16.24
2022-10-11T20:17:52.683Z,16.92
2022-10-11T20:20:26.867Z,17.10
2022-10-11T20:23:03.220Z,17.49
2022-10-11T20:25:37.417Z,17.56
2022-10-11T20:28:15.318Z,16.55
2022-10-11T20:30:56.132Z,16.32
2022-10-11T20:33:26.695Z,16.52
2022-10-11T20:36:12.894Z,16.45
2022-10-11T20:38:48.674Z,17.12
2022-10-11T20:41:28.116Z,17.35
2022-10-11T20:44:03.363Z,16.93
2022-10-11T20:46:52.321Z,15.66
2022-10-11T20:49:28.365Z,15.99
2022-10-11T20:52:31.565Z,16.88
2022-10-11T20:55:15.540Z,16.88
2022-10-11T20:57:47.659Z,17.40
2022-10-11T21:00:25.334Z,17.35
2022-10-11T21:03:07.689Z,17.47
2022-10-11T21:05:40.337Z,17.57
2022-10-11T21:08:09.741Z,17.73
2022-10-11T21:10:44.618Z,17.74
2022-10-11T21:13:27.092Z,17.78
2022-10-11T21:16:25.533Z,17.81
2022-10-11T21:19:00.408Z,17.86
2022-10-11T21:21:40.272Z,17.56
2022-10-11T21:24:11.669Z,17.37
2022-10-11T21:26:50.937Z,17.45
2022-10-11T21:29:30.169Z,17.57
2022-10-11T21:32:13.538Z,17.87
2022-10-11T21:37:43.520Z,15.84
2022-10-11T21:40:29.736Z,16.62
2022-10-11T21:43:15.558Z,16.99
2022-10-11T21:45:47.619Z,16.74
2022-10-11T21:48:23.275Z,16.90
2022-10-11T21:51:02.457Z,16.92
2022-10-11T21:53:46.237Z,16.94
2022-10-11T21:56:23.114Z,17.15
2022-10-11T21:59:00.296Z,17.15
2022-10-11T22:07:27.455Z,17.32
2022-10-11T22:09:55.127Z,17.39
2022-10-11T22:12:24.021Z,17.24
2022-10-11T22:17:48.101Z,17.22
2022-10-11T22:20:24.678Z,17.41
2022-10-11T22:22:57.975Z,17.63
2022-10-11T22:25:34.847Z,17.38
2022-10-11T22:28:16.756Z,15.51
2022-10-11T22:30:54.130Z,15.23
2022-10-11T22:33:29.277Z,15.33
2022-10-11T22:36:01.488Z,15.80
2022-10-11T22:38:37.675Z,16.24
2022-10-11T22:41:10.853Z,16.43
2022-10-11T22:43:41.430Z,16.68
2022-10-11T22:46:12.204Z,16.59
2022-10-11T22:48:39.571Z,16.63
2022-10-11T22:51:07.168Z,16.71
2022-10-11T22:53:40.079Z,16.83
2022-10-11T22:56:20.814Z,17.04
2022-10-11T22:58:47.935Z,17.12
2022-10-11T23:01:16.755Z,17.38
2022-10-11T23:03:47.529Z,16.56
2022-10-11T23:06:14.666Z,16.36
2022-10-11T23:08:41.983Z,16.61
2022-10-11T23:11:11.343Z,16.71
2022-10-11T23:13:38.575Z,17.17
2022-10-11T23:16:07.729Z,17.27
2022-10-11T23:18:37.403Z,17.29
2022-10-11T23:21:09.902Z,16.87
2022-10-11T23:23:39.308Z,15.56
2022-10-11T23:26:13.842Z,16.24
2022-10-11T23:28:42.816Z,16.53
2022-10-11T23:31:14.097Z,16.66
2022-10-11T23:33:41.264Z,17.24
2022-10-11T23:36:22.601Z,17.21
2022-10-11T23:38:58.590Z,17.33
2022-10-11T23:41:29.148Z,17.40
2022-10-11T23:43:58.691Z,17.33
2022-10-11T23:46:25.984Z,16.73
2022-10-11T23:48:52.936Z,16.23
2022-10-11T23:51:20.239Z,16.67
2022-10-11T23:53:47.373Z,16.67
2022-10-11T23:56:14.459Z,17.12
2022-10-11T23:58:41.660Z,16.62
